Lompoc, California
Current Conditions -  °F | °C
As of 4:55 PM on Saturday 22 Nov 2014 (Local Time) from KLPC Reporting Station
Overcast Overcast  
Wind Chill: 64°   Ceiling: 1200
Heat Index: 64°   Visibility: 10mi
Dew Point: 55°   Wind: 14mph
Humidity: 73%   Direction: 290°WNW
Pressure: 30.1"   Gusts: NA
Location:  34.64°N, 120.45°W
Report Text: KLPC 230055Z AUTO 29012KT 10SM OVC012 18/13 A3010 RMK AO1
Loading
Personal Weather Stations






























Interactive Weather Map New forecast layout! Learn more

10-Day Weather Forecast

Advertisements
Track Severe Weather on mobile